This is the latest recevied weather packets stored in our database for station/object EA5HRE-13. If no packets are shown the sender has not sent any weather packets the latest 10 day(s).
| Time | Temp. | Humidity | Pressure | Rain* | Wind** | Luminosity | Snow |
|---|---|---|---|---|---|---|---|
| 1788650883 | 24.44° C | 83% | 1021.4 hPa | 0 mm | - | - | - |
| 1788648180 | 24.44° C | 85% | 1021.3 hPa | 0 mm | - | - | - |
| 1788647279 | 25° C | 85% | 1021.2 hPa | 0 mm | - | - | - |
| 1788646378 | 25° C | 85% | 1021.1 hPa | 0 mm | - | - | - |
| 1788644579 | 25.56° C | 85% | 1021.2 hPa | 0 mm | - | - | - |
| 1788643676 | 25.56° C | 82% | 1021.1 hPa | 0 mm | - | - | - |
| 1788642775 | 25.56° C | 81% | 1021.1 hPa | 0 mm | - | - | - |
| 1788642774 | 25.56° C | 81% | 1021.1 hPa | 0 mm | - | - | - |
| 1788640072 | 26.67° C | 77% | 1020.9 hPa | 0 mm | - | - | - |
| 1788639171 | 26.67° C | 75% | 1020.7 hPa | 0 mm | - | - | - |
| 1788638270 | 27.22° C | 71% | 1020.4 hPa | 0 mm | - | - | - |
| 1788637371 | 27.78° C | 67% | 1020 hPa | 0 mm | - | - | - |
| 1788636469 | 27.78° C | 62% | 1019.6 hPa | 0 mm | - | - | - |
| 1788635566 | 28.33° C | 58% | 1019.3 hPa | 0 mm | - | - | - |
| 1788634665 | 28.89° C | 54% | 1019.1 hPa | 0 mm | - | - | - |
| 1788632863 | 30° C | 47% | 1019 hPa | 0 mm | - | - | - |
| 1788631964 | 30° C | 44% | 1019 hPa | 0 mm | - | - | - |
| 1788631064 | 30.56° C | 42% | 1018.9 hPa | 0 mm | - | - | - |
| 1788631063 | 30.56° C | 42% | 1018.9 hPa | 0 mm | - | - | - |
| 1788630163 | 30.56° C | 44% | 1019.3 hPa | 0 mm | - | - | - |
| 1788629262 | 31.11° C | 42% | 1019.2 hPa | 0 mm | - | - | - |
| 1788628360 | 31.11° C | 41% | 1019.2 hPa | 0 mm | - | - | - |
| 1788627460 | 31.67° C | 40% | 1019.3 hPa | 0 mm | - | - | - |
| 1788625658 | 32.22° C | 40% | 1019.7 hPa | 0 mm | - | - | - |
| 1788624758 | 32.22° C | 40% | 1019.8 hPa | 0 mm | - | - | - |
* Rain latest hour (hover to see other rain measurements)
** Current wind speed in m/s (hover to see current wind gust speed)